TimeEDT,TemperatureF,Dew PointF,Humidity,Sea Level PressureIn,VisibilityMPH,Wind Direction,Wind SpeedMPH,Gust SpeedMPH,PrecipitationIn,Events,Conditions,WindDirDegrees,DateUTC
12:53 AM,64.0,51.1,63,29.72,10.0,WNW,19.6,34.5,0.00,Rain,Light Rain,290,2012-10-15 04:53:00
1:53 AM,60.1,54.0,80,29.74,10.0,West,17.3,24.2,0.04,,Overcast,280,2012-10-15 05:53:00
2:53 AM,57.9,48.0,70,29.77,10.0,WNW,9.2,24.2,N/A,,Overcast,290,2012-10-15 06:53:00
3:53 AM,55.9,48.0,75,29.78,10.0,WNW,9.2,-,N/A,,Mostly Cloudy,290,2012-10-15 07:53:00
4:17 AM,55.4,48.2,77,29.79,10.0,WNW,6.9,-,N/A,,Overcast,300,2012-10-15 08:17:00
4:53 AM,55.0,45.0,69,29.79,10.0,WNW,6.9,-,N/A,,Overcast,300,2012-10-15 08:53:00
5:53 AM,51.1,46.0,83,29.80,10.0,West,3.5,-,N/A,,Scattered Clouds,260,2012-10-15 09:53:00
6:04 AM,51.8,46.4,82,29.81,10.0,Calm,Calm,-,N/A,,Mostly Cloudy,0,2012-10-15 10:04:00
6:40 AM,51.8,46.4,82,29.81,10.0,SSW,3.5,-,N/A,,Mostly Cloudy,210,2012-10-15 10:40:00
6:53 AM,52.0,46.0,80,29.80,10.0,SW,3.5,-,N/A,,Mostly Cloudy,220,2012-10-15 10:53:00
7:27 AM,51.8,46.4,82,29.81,10.0,Calm,Calm,-,N/A,,Overcast,0,2012-10-15 11:27:00
7:53 AM,52.0,46.9,83,29.81,10.0,SW,3.5,-,N/A,,Overcast,230,2012-10-15 11:53:00
8:53 AM,53.1,46.0,77,29.82,10.0,WNW,8.1,-,N/A,,Overcast,300,2012-10-15 12:53:00
9:53 AM,52.0,48.0,86,29.83,10.0,WSW,3.5,-,0.00,,Overcast,240,2012-10-15 13:53:00
10:53 AM,53.1,48.9,86,29.83,10.0,West,6.9,-,N/A,,Overcast,260,2012-10-15 14:53:00
11:12 AM,53.6,48.2,82,29.85,2.0,West,15.0,23.0,0.03,Rain,Rain,270,2012-10-15 15:12:00
11:19 AM,51.8,48.2,88,29.85,1.8,West,12.7,23.0,0.03,Rain,Light Rain,280,2012-10-15 15:19:00
11:21 AM,51.8,48.2,88,29.86,2.5,West,12.7,23.0,0.03,Rain,Light Rain,280,2012-10-15 15:21:00
11:23 AM,51.8,48.2,88,29.86,3.0,West,13.8,23.0,0.03,Rain,Light Rain,280,2012-10-15 15:23:00
11:29 AM,51.8,48.2,88,29.86,2.0,West,10.4,19.6,0.04,Rain,Light Rain,270,2012-10-15 15:29:00
11:41 AM,51.8,48.2,88,29.86,2.5,West,10.4,-,0.04,Rain,Light Rain,260,2012-10-15 15:41:00
11:49 AM,51.8,48.2,88,29.86,5.0,West,11.5,-,0.04,,Overcast,260,2012-10-15 15:49:00
11:53 AM,52.0,48.9,89,29.85,7.0,West,11.5,-,0.04,,Overcast,270,2012-10-15 15:53:00
12:32 PM,53.6,48.2,82,29.86,9.0,West,12.7,24.2,N/A,,Overcast,280,2012-10-15 16:32:00
12:53 PM,53.1,48.0,83,29.86,10.0,West,13.8,-,N/A,,Overcast,270,2012-10-15 16:53:00
1:24 PM,51.8,46.4,82,29.87,9.0,West,16.1,24.2,0.00,Rain,Light Rain,280,2012-10-15 17:24:00
1:40 PM,51.8,44.6,76,29.87,10.0,WNW,9.2,19.6,0.00,,Overcast,290,2012-10-15 17:40:00
1:53 PM,51.1,45.0,80,29.87,10.0,West,6.9,-,0.00,,Overcast,280,2012-10-15 17:53:00
2:53 PM,52.0,44.1,74,29.87,10.0,West,10.4,19.6,N/A,,Overcast,280,2012-10-15 18:53:00
3:53 PM,52.0,46.0,80,29.89,7.0,West,10.4,17.3,N/A,,Overcast,280,2012-10-15 19:53:00
4:53 PM,54.0,44.1,69,29.89,10.0,Variable,6.9,-,N/A,,Overcast,0,2012-10-15 20:53:00
5:53 PM,54.0,43.0,66,29.91,10.0,WNW,9.2,-,N/A,,Overcast,300,2012-10-15 21:53:00
6:53 PM,54.0,41.0,62,29.91,10.0,WNW,9.2,-,N/A,,Overcast,300,2012-10-15 22:53:00
7:53 PM,50.0,41.0,71,29.93,10.0,West,5.8,-,N/A,,Partly Cloudy,280,2012-10-15 23:53:00
8:53 PM,52.0,41.0,66,29.95,10.0,NW,6.9,-,N/A,,Overcast,320,2012-10-16 00:53:00
9:53 PM,45.0,39.9,82,29.96,10.0,West,3.5,-,N/A,,Scattered Clouds,270,2012-10-16 01:53:00
10:53 PM,44.1,39.0,82,29.96,10.0,WNW,4.6,-,N/A,,Mostly Cloudy,290,2012-10-16 02:53:00
11:53 PM,42.1,39.0,89,29.96,10.0,Calm,Calm,-,N/A,,Overcast,0,2012-10-16 03:53:00